Weyanoke, Louisiana
Current Conditions -  °F | °C
As of 8:55 PM on Tuesday 21 Oct 2014 (Local Time) from KHZR Reporting Station
Clear Clear  
Wind Chill: 64°   Ceiling: Unl
Heat Index: 64°   Visibility: 10mi
Dew Point: 59°   Wind: 3mph
Humidity: 84%   Direction: 10°N
Pressure: 30.03"   Gusts: NA
Location:  30.95°N, 91.46°W
Report Text: KHZR 220155Z AUTO 01003KT 10SM CLR 18/15 A3003 RMK AO2 T01780150
Loading
Personal Weather Stations






























Interactive Weather Map
Tropical Storm Tracking
New forecast layout! Learn more

10-Day Weather Forecast

Advertisements
Track Severe Weather on mobile